sensor_id;sensor_type;location;lat;lon;timestamp;P1;durP1;ratioP1;P2;durP2;ratioP2
80541;SDS011;69870;51.460;8.842;2023-08-17T00:01:16;28.05;;;14.55;;
80541;SDS011;69870;51.460;8.842;2023-08-17T00:03:42;22.00;;;13.77;;
80541;SDS011;69870;51.460;8.842;2023-08-17T00:06:09;21.35;;;14.00;;
80541;SDS011;69870;51.460;8.842;2023-08-17T00:08:36;23.48;;;13.32;;
80541;SDS011;69870;51.460;8.842;2023-08-17T00:11:02;29.40;;;14.07;;
80541;SDS011;69870;51.460;8.842;2023-08-17T00:13:29;25.40;;;14.43;;
80541;SDS011;69870;51.460;8.842;2023-08-17T00:15:55;26.80;;;14.77;;
80541;SDS011;69870;51.460;8.842;2023-08-17T00:18:23;20.83;;;13.15;;
80541;SDS011;69870;51.460;8.842;2023-08-17T00:20:50;25.60;;;14.35;;
80541;SDS011;69870;51.460;8.842;2023-08-17T00:23:16;23.77;;;13.63;;
80541;SDS011;69870;51.460;8.842;2023-08-17T00:25:43;28.23;;;14.48;;
80541;SDS011;69870;51.460;8.842;2023-08-17T00:28:09;27.55;;;14.85;;
80541;SDS011;69870;51.460;8.842;2023-08-17T00:30:36;25.58;;;14.55;;
80541;SDS011;69870;51.460;8.842;2023-08-17T00:33:03;25.10;;;14.02;;
80541;SDS011;69870;51.460;8.842;2023-08-17T00:35:32;19.25;;;14.30;;
80541;SDS011;69870;51.460;8.842;2023-08-17T00:37:59;33.92;;;15.15;;
80541;SDS011;69870;51.460;8.842;2023-08-17T00:40:26;26.15;;;15.25;;
80541;SDS011;69870;51.460;8.842;2023-08-17T00:42:52;23.50;;;13.77;;
80541;SDS011;69870;51.460;8.842;2023-08-17T00:45:19;24.63;;;15.13;;
80541;SDS011;69870;51.460;8.842;2023-08-17T00:47:46;21.98;;;14.80;;
80541;SDS011;69870;51.460;8.842;2023-08-17T00:50:13;24.40;;;15.52;;
80541;SDS011;69870;51.460;8.842;2023-08-17T00:52:42;27.05;;;14.25;;
80541;SDS011;69870;51.460;8.842;2023-08-17T00:55:09;40.53;;;16.40;;
80541;SDS011;69870;51.460;8.842;2023-08-17T00:57:37;27.85;;;16.55;;
80541;SDS011;69870;51.460;8.842;2023-08-17T01:00:05;33.45;;;17.40;;
80541;SDS011;69870;51.460;8.842;2023-08-17T01:02:33;31.45;;;18.40;;
80541;SDS011;69870;51.460;8.842;2023-08-17T01:05:01;30.05;;;17.50;;
80541;SDS011;69870;51.460;8.842;2023-08-17T01:07:28;29.30;;;18.33;;
80541;SDS011;69870;51.460;8.842;2023-08-17T01:09:56;34.40;;;18.35;;
80541;SDS011;69870;51.460;8.842;2023-08-17T01:12:24;35.53;;;18.65;;
80541;SDS011;69870;51.460;8.842;2023-08-17T01:14:59;37.03;;;17.73;;
80541;SDS011;69870;51.460;8.842;2023-08-17T01:17:33;30.48;;;18.90;;
80541;SDS011;69870;51.460;8.842;2023-08-17T01:20:03;28.38;;;17.60;;
80541;SDS011;69870;51.460;8.842;2023-08-17T01:22:32;28.80;;;18.83;;
80541;SDS011;69870;51.460;8.842;2023-08-17T01:25:02;31.83;;;18.85;;
80541;SDS011;69870;51.460;8.842;2023-08-17T01:27:33;31.48;;;17.77;;
80541;SDS011;69870;51.460;8.842;2023-08-17T01:30:04;32.80;;;16.88;;
80541;SDS011;69870;51.460;8.842;2023-08-17T01:32:32;36.85;;;18.50;;
80541;SDS011;69870;51.460;8.842;2023-08-17T01:35:07;33.33;;;18.50;;
80541;SDS011;69870;51.460;8.842;2023-08-17T01:37:40;40.53;;;18.48;;
80541;SDS011;69870;51.460;8.842;2023-08-17T01:40:10;30.98;;;17.48;;
80541;SDS011;69870;51.460;8.842;2023-08-17T01:42:39;24.27;;;15.77;;
80541;SDS011;69870;51.460;8.842;2023-08-17T01:45:08;42.30;;;19.27;;
80541;SDS011;69870;51.460;8.842;2023-08-17T01:47:35;35.65;;;18.48;;
80541;SDS011;69870;51.460;8.842;2023-08-17T01:50:02;31.02;;;18.65;;
80541;SDS011;69870;51.460;8.842;2023-08-17T01:52:28;44.03;;;19.02;;
80541;SDS011;69870;51.460;8.842;2023-08-17T01:54:55;34.28;;;18.58;;
80541;SDS011;69870;51.460;8.842;2023-08-17T01:57:23;35.00;;;20.48;;
80541;SDS011;69870;51.460;8.842;2023-08-17T01:59:49;49.55;;;20.63;;
80541;SDS011;69870;51.460;8.842;2023-08-17T02:02:16;34.75;;;21.85;;
80541;SDS011;69870;51.460;8.842;2023-08-17T02:04:42;40.83;;;22.05;;
80541;SDS011;69870;51.460;8.842;2023-08-17T02:07:09;33.70;;;22.05;;
80541;SDS011;69870;51.460;8.842;2023-08-17T02:09:36;33.65;;;22.05;;
80541;SDS011;69870;51.460;8.842;2023-08-17T02:12:04;31.08;;;18.27;;
80541;SDS011;69870;51.460;8.842;2023-08-17T02:14:34;35.72;;;18.75;;
80541;SDS011;69870;51.460;8.842;2023-08-17T02:17:01;30.67;;;18.60;;
80541;SDS011;69870;51.460;8.842;2023-08-17T02:19:27;36.88;;;22.02;;
80541;SDS011;69870;51.460;8.842;2023-08-17T02:21:54;33.70;;;19.55;;
80541;SDS011;69870;51.460;8.842;2023-08-17T02:24:20;37.63;;;20.35;;
80541;SDS011;69870;51.460;8.842;2023-08-17T02:26:50;35.08;;;19.77;;
80541;SDS011;69870;51.460;8.842;2023-08-17T02:29:17;39.85;;;20.55;;
80541;SDS011;69870;51.460;8.842;2023-08-17T02:31:45;39.47;;;22.02;;
80541;SDS011;69870;51.460;8.842;2023-08-17T02:34:11;35.03;;;20.67;;
80541;SDS011;69870;51.460;8.842;2023-08-17T02:36:38;38.08;;;20.42;;
80541;SDS011;69870;51.460;8.842;2023-08-17T02:39:04;33.17;;;20.52;;
80541;SDS011;69870;51.460;8.842;2023-08-17T02:41:31;35.28;;;20.98;;
80541;SDS011;69870;51.460;8.842;2023-08-17T02:43:58;31.83;;;22.20;;
80541;SDS011;69870;51.460;8.842;2023-08-17T02:46:24;42.15;;;21.55;;
80541;SDS011;69870;51.460;8.842;2023-08-17T02:48:52;41.70;;;24.25;;
80541;SDS011;69870;51.460;8.842;2023-08-17T02:51:19;36.83;;;21.25;;
80541;SDS011;69870;51.460;8.842;2023-08-17T02:53:45;46.70;;;24.73;;
80541;SDS011;69870;51.460;8.842;2023-08-17T02:56:12;46.92;;;23.63;;
80541;SDS011;69870;51.460;8.842;2023-08-17T02:58:38;44.15;;;23.00;;
80541;SDS011;69870;51.460;8.842;2023-08-17T03:01:06;46.00;;;25.10;;
80541;SDS011;69870;51.460;8.842;2023-08-17T03:03:32;43.30;;;24.30;;
80541;SDS011;69870;51.460;8.842;2023-08-17T03:06:01;45.15;;;24.33;;
80541;SDS011;69870;51.460;8.842;2023-08-17T03:08:28;34.92;;;21.17;;
80541;SDS011;69870;51.460;8.842;2023-08-17T03:10:55;33.63;;;21.30;;
80541;SDS011;69870;51.460;8.842;2023-08-17T03:13:21;31.58;;;20.17;;
80541;SDS011;69870;51.460;8.842;2023-08-17T03:15:48;38.83;;;23.50;;
80541;SDS011;69870;51.460;8.842;2023-08-17T03:18:14;47.08;;;24.60;;
80541;SDS011;69870;51.460;8.842;2023-08-17T03:20:41;47.75;;;24.33;;
80541;SDS011;69870;51.460;8.842;2023-08-17T03:23:10;50.17;;;25.92;;
80541;SDS011;69870;51.460;8.842;2023-08-17T03:25:37;55.25;;;27.13;;
80541;SDS011;69870;51.460;8.842;2023-08-17T03:28:03;55.40;;;27.90;;
80541;SDS011;69870;51.460;8.842;2023-08-17T03:30:30;47.53;;;27.30;;
80541;SDS011;69870;51.460;8.842;2023-08-17T03:32:57;48.95;;;26.65;;
80541;SDS011;69870;51.460;8.842;2023-08-17T03:35:24;38.47;;;25.85;;
80541;SDS011;69870;51.460;8.842;2023-08-17T03:37:51;51.40;;;27.88;;
80541;SDS011;69870;51.460;8.842;2023-08-17T03:40:19;42.40;;;28.92;;
80541;SDS011;69870;51.460;8.842;2023-08-17T03:42:46;49.92;;;28.25;;
80541;SDS011;69870;51.460;8.842;2023-08-17T03:45:13;48.38;;;28.50;;
80541;SDS011;69870;51.460;8.842;2023-08-17T03:47:39;52.58;;;30.23;;
80541;SDS011;69870;51.460;8.842;2023-08-17T03:50:06;54.38;;;29.48;;
80541;SDS011;69870;51.460;8.842;2023-08-17T03:52:35;38.97;;;28.38;;
80541;SDS011;69870;51.460;8.842;2023-08-17T03:55:01;56.03;;;30.67;;
80541;SDS011;69870;51.460;8.842;2023-08-17T03:57:32;47.53;;;29.15;;
80541;SDS011;69870;51.460;8.842;2023-08-17T03:59:58;48.13;;;30.77;;
80541;SDS011;69870;51.460;8.842;2023-08-17T04:02:25;52.10;;;31.85;;
80541;SDS011;69870;51.460;8.842;2023-08-17T04:04:51;46.85;;;29.45;;
80541;SDS011;69870;51.460;8.842;2023-08-17T04:07:22;48.58;;;32.30;;
80541;SDS011;69870;51.460;8.842;2023-08-17T04:09:51;64.40;;;33.40;;
80541;SDS011;69870;51.460;8.842;2023-08-17T04:12:18;61.58;;;33.53;;
80541;SDS011;69870;51.460;8.842;2023-08-17T04:14:46;51.47;;;31.30;;
80541;SDS011;69870;51.460;8.842;2023-08-17T04:17:12;62.60;;;34.25;;
80541;SDS011;69870;51.460;8.842;2023-08-17T04:19:39;61.97;;;34.03;;
80541;SDS011;69870;51.460;8.842;2023-08-17T04:22:07;51.85;;;34.28;;
80541;SDS011;69870;51.460;8.842;2023-08-17T04:24:35;59.95;;;33.53;;
80541;SDS011;69870;51.460;8.842;2023-08-17T04:27:01;67.97;;;36.53;;
80541;SDS011;69870;51.460;8.842;2023-08-17T04:29:29;70.03;;;35.90;;
80541;SDS011;69870;51.460;8.842;2023-08-17T04:31:57;62.35;;;33.47;;
80541;SDS011;69870;51.460;8.842;2023-08-17T04:34:24;59.03;;;35.67;;
80541;SDS011;69870;51.460;8.842;2023-08-17T04:36:51;59.80;;;34.60;;
80541;SDS011;69870;51.460;8.842;2023-08-17T04:39:17;59.92;;;34.60;;
80541;SDS011;69870;51.460;8.842;2023-08-17T04:41:44;69.43;;;37.58;;
80541;SDS011;69870;51.460;8.842;2023-08-17T04:44:14;59.03;;;33.72;;
80541;SDS011;69870;51.460;8.842;2023-08-17T04:46:41;65.22;;;36.30;;
80541;SDS011;69870;51.460;8.842;2023-08-17T04:49:09;61.72;;;35.63;;
80541;SDS011;69870;51.460;8.842;2023-08-17T04:51:36;56.97;;;33.50;;
80541;SDS011;69870;51.460;8.842;2023-08-17T04:54:02;68.55;;;36.60;;
80541;SDS011;69870;51.460;8.842;2023-08-17T04:56:29;81.40;;;38.50;;
80541;SDS011;69870;51.460;8.842;2023-08-17T04:58:56;70.03;;;38.22;;
80541;SDS011;69870;51.460;8.842;2023-08-17T05:01:23;78.82;;;37.55;;
80541;SDS011;69870;51.460;8.842;2023-08-17T05:03:49;74.20;;;39.55;;
80541;SDS011;69870;51.460;8.842;2023-08-17T05:06:18;71.30;;;38.10;;
80541;SDS011;69870;51.460;8.842;2023-08-17T05:08:45;92.47;;;46.35;;
80541;SDS011;69870;51.460;8.842;2023-08-17T05:11:11;89.80;;;45.42;;
80541;SDS011;69870;51.460;8.842;2023-08-17T05:13:38;68.80;;;39.13;;
80541;SDS011;69870;51.460;8.842;2023-08-17T05:16:05;74.50;;;39.40;;
80541;SDS011;69870;51.460;8.842;2023-08-17T05:18:31;67.65;;;37.42;;
80541;SDS011;69870;51.460;8.842;2023-08-17T05:20:58;65.25;;;37.67;;
80541;SDS011;69870;51.460;8.842;2023-08-17T05:23:26;77.70;;;39.83;;
80541;SDS011;69870;51.460;8.842;2023-08-17T05:25:53;68.60;;;37.30;;
80541;SDS011;69870;51.460;8.842;2023-08-17T05:28:20;69.28;;;37.80;;
80541;SDS011;69870;51.460;8.842;2023-08-17T05:30:46;63.22;;;35.13;;
80541;SDS011;69870;51.460;8.842;2023-08-17T05:33:13;59.38;;;34.78;;
80541;SDS011;69870;51.460;8.842;2023-08-17T05:35:39;73.95;;;38.38;;
80541;SDS011;69870;51.460;8.842;2023-08-17T05:38:07;68.18;;;38.70;;
80541;SDS011;69870;51.460;8.842;2023-08-17T05:40:36;59.85;;;35.90;;
80541;SDS011;69870;51.460;8.842;2023-08-17T05:43:02;56.33;;;34.05;;
80541;SDS011;69870;51.460;8.842;2023-08-17T05:45:29;61.58;;;32.28;;
80541;SDS011;69870;51.460;8.842;2023-08-17T05:47:56;65.55;;;34.53;;
80541;SDS011;69870;51.460;8.842;2023-08-17T05:50:23;65.97;;;36.28;;
80541;SDS011;69870;51.460;8.842;2023-08-17T05:52:49;64.10;;;36.33;;
80541;SDS011;69870;51.460;8.842;2023-08-17T05:55:16;79.15;;;40.15;;
80541;SDS011;69870;51.460;8.842;2023-08-17T05:57:44;81.82;;;37.75;;
80541;SDS011;69870;51.460;8.842;2023-08-17T06:00:11;74.68;;;39.20;;
80541;SDS011;69870;51.460;8.842;2023-08-17T06:02:40;74.47;;;37.97;;
80541;SDS011;69870;51.460;8.842;2023-08-17T06:05:07;76.45;;;40.50;;
80541;SDS011;69870;51.460;8.842;2023-08-17T06:07:34;91.78;;;40.40;;
80541;SDS011;69870;51.460;8.842;2023-08-17T06:10:03;87.80;;;41.22;;
80541;SDS011;69870;51.460;8.842;2023-08-17T06:12:32;104.30;;;45.28;;
80541;SDS011;69870;51.460;8.842;2023-08-17T06:15:01;87.07;;;42.55;;
80541;SDS011;69870;51.460;8.842;2023-08-17T06:17:28;91.53;;;41.05;;
80541;SDS011;69870;51.460;8.842;2023-08-17T06:19:54;76.50;;;38.90;;
80541;SDS011;69870;51.460;8.842;2023-08-17T06:22:21;83.72;;;40.92;;
80541;SDS011;69870;51.460;8.842;2023-08-17T06:24:48;84.07;;;39.70;;
80541;SDS011;69870;51.460;8.842;2023-08-17T06:27:14;84.00;;;38.75;;
80541;SDS011;69870;51.460;8.842;2023-08-17T06:29:41;93.05;;;41.60;;
80541;SDS011;69870;51.460;8.842;2023-08-17T06:32:10;105.70;;;42.78;;
80541;SDS011;69870;51.460;8.842;2023-08-17T06:34:36;96.47;;;40.58;;
80541;SDS011;69870;51.460;8.842;2023-08-17T06:37:03;95.95;;;43.47;;
80541;SDS011;69870;51.460;8.842;2023-08-17T06:39:30;96.68;;;42.80;;
80541;SDS011;69870;51.460;8.842;2023-08-17T06:41:57;86.68;;;39.92;;
80541;SDS011;69870;51.460;8.842;2023-08-17T06:44:23;72.53;;;34.25;;
80541;SDS011;69870;51.460;8.842;2023-08-17T06:46:50;61.30;;;31.67;;
80541;SDS011;69870;51.460;8.842;2023-08-17T06:49:18;66.93;;;29.90;;
80541;SDS011;69870;51.460;8.842;2023-08-17T06:51:44;58.47;;;29.90;;
80541;SDS011;69870;51.460;8.842;2023-08-17T06:54:11;63.20;;;30.25;;
80541;SDS011;69870;51.460;8.842;2023-08-17T06:56:37;71.65;;;31.95;;
80541;SDS011;69870;51.460;8.842;2023-08-17T06:59:04;66.40;;;30.50;;
80541;SDS011;69870;51.460;8.842;2023-08-17T07:01:30;70.20;;;31.35;;
80541;SDS011;69870;51.460;8.842;2023-08-17T07:03:57;61.45;;;30.58;;
80541;SDS011;69870;51.460;8.842;2023-08-17T07:06:25;53.22;;;28.80;;
80541;SDS011;69870;51.460;8.842;2023-08-17T07:08:51;53.58;;;26.70;;
80541;SDS011;69870;51.460;8.842;2023-08-17T07:11:18;43.53;;;26.45;;
80541;SDS011;69870;51.460;8.842;2023-08-17T07:13:45;40.42;;;23.05;;
80541;SDS011;69870;51.460;8.842;2023-08-17T07:16:11;42.42;;;23.77;;
80541;SDS011;69870;51.460;8.842;2023-08-17T07:18:38;35.38;;;22.02;;
80541;SDS011;69870;51.460;8.842;2023-08-17T07:21:05;29.35;;;18.10;;
80541;SDS011;69870;51.460;8.842;2023-08-17T07:23:33;28.98;;;18.70;;
80541;SDS011;69870;51.460;8.842;2023-08-17T07:25:59;39.78;;;21.73;;
80541;SDS011;69870;51.460;8.842;2023-08-17T07:28:26;42.03;;;24.83;;
80541;SDS011;69870;51.460;8.842;2023-08-17T07:30:53;31.77;;;21.00;;
80541;SDS011;69870;51.460;8.842;2023-08-17T07:33:20;28.13;;;17.60;;
80541;SDS011;69870;51.460;8.842;2023-08-17T07:35:46;28.85;;;17.88;;
80541;SDS011;69870;51.460;8.842;2023-08-17T07:38:13;32.28;;;19.48;;
80541;SDS011;69870;51.460;8.842;2023-08-17T07:40:41;33.72;;;19.25;;
80541;SDS011;69870;51.460;8.842;2023-08-17T07:43:09;33.55;;;18.75;;
80541;SDS011;69870;51.460;8.842;2023-08-17T07:45:36;43.40;;;20.42;;
80541;SDS011;69870;51.460;8.842;2023-08-17T07:48:02;36.15;;;20.58;;
80541;SDS011;69870;51.460;8.842;2023-08-17T07:50:29;38.15;;;22.25;;
80541;SDS011;69870;51.460;8.842;2023-08-17T07:52:56;36.58;;;20.60;;
80541;SDS011;69870;51.460;8.842;2023-08-17T07:55:22;28.13;;;17.95;;
80541;SDS011;69870;51.460;8.842;2023-08-17T07:57:50;31.00;;;18.27;;
80541;SDS011;69870;51.460;8.842;2023-08-17T08:00:17;26.92;;;15.40;;
80541;SDS011;69870;51.460;8.842;2023-08-17T08:02:44;24.52;;;15.13;;
80541;SDS011;69870;51.460;8.842;2023-08-17T08:05:10;22.40;;;15.18;;
80541;SDS011;69870;51.460;8.842;2023-08-17T08:07:39;27.30;;;17.10;;
80541;SDS011;69870;51.460;8.842;2023-08-17T08:10:06;29.65;;;15.82;;
80541;SDS011;69870;51.460;8.842;2023-08-17T08:12:33;31.55;;;17.08;;
80541;SDS011;69870;51.460;8.842;2023-08-17T08:15:01;24.60;;;15.70;;
80541;SDS011;69870;51.460;8.842;2023-08-17T08:17:27;32.15;;;17.70;;
80541;SDS011;69870;51.460;8.842;2023-08-17T08:19:54;21.23;;;13.30;;
80541;SDS011;69870;51.460;8.842;2023-08-17T08:22:20;22.10;;;15.25;;
80541;SDS011;69870;51.460;8.842;2023-08-17T08:24:47;18.73;;;12.63;;
80541;SDS011;69870;51.460;8.842;2023-08-17T08:27:13;24.67;;;13.05;;
80541;SDS011;69870;51.460;8.842;2023-08-17T08:29:40;18.48;;;12.82;;
80541;SDS011;69870;51.460;8.842;2023-08-17T08:32:08;31.15;;;15.00;;
80541;SDS011;69870;51.460;8.842;2023-08-17T08:34:34;27.40;;;15.32;;
80541;SDS011;69870;51.460;8.842;2023-08-17T08:37:01;27.58;;;14.50;;
80541;SDS011;69870;51.460;8.842;2023-08-17T08:39:27;24.75;;;13.75;;
80541;SDS011;69870;51.460;8.842;2023-08-17T08:41:54;29.60;;;15.05;;
80541;SDS011;69870;51.460;8.842;2023-08-17T08:44:21;30.02;;;15.30;;
80541;SDS011;69870;51.460;8.842;2023-08-17T08:46:48;23.10;;;15.07;;
80541;SDS011;69870;51.460;8.842;2023-08-17T08:49:18;22.58;;;14.80;;
80541;SDS011;69870;51.460;8.842;2023-08-17T08:51:47;26.50;;;16.73;;
80541;SDS011;69870;51.460;8.842;2023-08-17T08:54:17;30.73;;;17.35;;
80541;SDS011;69870;51.460;8.842;2023-08-17T08:56:50;23.95;;;15.38;;
80541;SDS011;69870;51.460;8.842;2023-08-17T08:59:19;21.65;;;13.20;;
80541;SDS011;69870;51.460;8.842;2023-08-17T09:01:47;23.35;;;14.95;;
80541;SDS011;69870;51.460;8.842;2023-08-17T09:04:14;22.60;;;15.27;;
80541;SDS011;69870;51.460;8.842;2023-08-17T09:06:43;24.08;;;13.23;;
80541;SDS011;69870;51.460;8.842;2023-08-17T09:09:10;29.20;;;15.88;;
80541;SDS011;69870;51.460;8.842;2023-08-17T09:11:37;23.73;;;13.75;;
80541;SDS011;69870;51.460;8.842;2023-08-17T09:14:05;28.80;;;15.13;;
80541;SDS011;69870;51.460;8.842;2023-08-17T09:16:33;25.15;;;13.02;;
80541;SDS011;69870;51.460;8.842;2023-08-17T09:18:59;20.90;;;12.60;;
80541;SDS011;69870;51.460;8.842;2023-08-17T09:21:30;21.58;;;12.77;;
80541;SDS011;69870;51.460;8.842;2023-08-17T09:23:59;21.58;;;14.18;;
80541;SDS011;69870;51.460;8.842;2023-08-17T09:26:25;22.75;;;12.38;;
80541;SDS011;69870;51.460;8.842;2023-08-17T09:28:57;16.63;;;12.23;;
80541;SDS011;69870;51.460;8.842;2023-08-17T09:31:24;17.55;;;12.25;;
80541;SDS011;69870;51.460;8.842;2023-08-17T09:33:51;17.35;;;12.38;;
80541;SDS011;69870;51.460;8.842;2023-08-17T09:36:19;17.20;;;11.13;;
80541;SDS011;69870;51.460;8.842;2023-08-17T09:38:47;20.38;;;12.07;;
80541;SDS011;69870;51.460;8.842;2023-08-17T09:41:15;13.70;;;9.98;;
80541;SDS011;69870;51.460;8.842;2023-08-17T09:43:43;12.70;;;10.43;;
80541;SDS011;69870;51.460;8.842;2023-08-17T09:46:09;13.93;;;9.55;;
80541;SDS011;69870;51.460;8.842;2023-08-17T09:48:37;17.77;;;10.02;;
80541;SDS011;69870;51.460;8.842;2023-08-17T09:51:03;18.65;;;11.15;;
80541;SDS011;69870;51.460;8.842;2023-08-17T09:53:34;14.82;;;10.88;;
80541;SDS011;69870;51.460;8.842;2023-08-17T09:56:02;16.73;;;11.50;;
80541;SDS011;69870;51.460;8.842;2023-08-17T09:58:31;14.02;;;10.65;;
80541;SDS011;69870;51.460;8.842;2023-08-17T10:00:57;15.27;;;11.15;;
80541;SDS011;69870;51.460;8.842;2023-08-17T10:03:26;10.95;;;7.95;;
80541;SDS011;69870;51.460;8.842;2023-08-17T10:05:56;14.77;;;8.30;;
80541;SDS011;69870;51.460;8.842;2023-08-17T10:08:28;11.45;;;7.40;;
80541;SDS011;69870;51.460;8.842;2023-08-17T10:10:56;11.13;;;6.35;;
80541;SDS011;69870;51.460;8.842;2023-08-17T10:13:26;8.27;;;6.22;;
80541;SDS011;69870;51.460;8.842;2023-08-17T10:16:00;7.38;;;6.38;;
80541;SDS011;69870;51.460;8.842;2023-08-17T10:18:33;14.65;;;8.48;;
80541;SDS011;69870;51.460;8.842;2023-08-17T10:21:05;9.90;;;6.25;;
80541;SDS011;69870;51.460;8.842;2023-08-17T10:23:36;10.57;;;6.32;;
80541;SDS011;69870;51.460;8.842;2023-08-17T10:26:04;10.48;;;7.10;;
80541;SDS011;69870;51.460;8.842;2023-08-17T10:28:33;13.18;;;7.60;;
80541;SDS011;69870;51.460;8.842;2023-08-17T10:31:02;15.38;;;8.52;;
80541;SDS011;69870;51.460;8.842;2023-08-17T10:33:28;10.10;;;8.18;;
80541;SDS011;69870;51.460;8.842;2023-08-17T10:35:55;15.05;;;8.55;;
80541;SDS011;69870;51.460;8.842;2023-08-17T10:38:23;15.07;;;8.98;;
80541;SDS011;69870;51.460;8.842;2023-08-17T10:43:34;14.95;;;11.13;;
80541;SDS011;69870;51.460;8.842;2023-08-17T10:46:15;17.02;;;11.63;;
80541;SDS011;69870;51.460;8.842;2023-08-17T10:48:43;18.15;;;13.07;;
80541;SDS011;69870;51.460;8.842;2023-08-17T10:51:09;16.90;;;13.45;;
80541;SDS011;69870;51.460;8.842;2023-08-17T10:53:38;17.42;;;12.73;;
80541;SDS011;69870;51.460;8.842;2023-08-17T10:56:11;14.63;;;12.75;;
80541;SDS011;69870;51.460;8.842;2023-08-17T10:58:38;20.13;;;12.55;;
80541;SDS011;69870;51.460;8.842;2023-08-17T11:01:06;14.25;;;11.52;;
80541;SDS011;69870;51.460;8.842;2023-08-17T11:03:34;15.88;;;11.18;;
80541;SDS011;69870;51.460;8.842;2023-08-17T11:06:13;17.42;;;13.27;;
80541;SDS011;69870;51.460;8.842;2023-08-17T11:08:51;14.82;;;11.35;;
80541;SDS011;69870;51.460;8.842;2023-08-17T11:11:20;15.20;;;11.43;;
80541;SDS011;69870;51.460;8.842;2023-08-17T11:13:47;15.35;;;11.40;;
80541;SDS011;69870;51.460;8.842;2023-08-17T11:16:15;13.85;;;11.30;;
80541;SDS011;69870;51.460;8.842;2023-08-17T11:18:45;16.55;;;13.88;;
80541;SDS011;69870;51.460;8.842;2023-08-17T11:21:13;19.20;;;12.60;;
80541;SDS011;69870;51.460;8.842;2023-08-17T11:23:40;18.85;;;13.32;;
80541;SDS011;69870;51.460;8.842;2023-08-17T11:26:07;20.13;;;13.70;;
80541;SDS011;69870;51.460;8.842;2023-08-17T11:28:34;25.52;;;14.30;;
80541;SDS011;69870;51.460;8.842;2023-08-17T11:31:03;17.52;;;13.32;;
80541;SDS011;69870;51.460;8.842;2023-08-17T11:33:31;17.60;;;12.63;;
80541;SDS011;69870;51.460;8.842;2023-08-17T11:36:01;18.00;;;12.55;;
80541;SDS011;69870;51.460;8.842;2023-08-17T11:38:29;16.58;;;12.07;;
80541;SDS011;69870;51.460;8.842;2023-08-17T11:40:57;15.23;;;11.57;;
80541;SDS011;69870;51.460;8.842;2023-08-17T11:43:24;16.90;;;12.65;;
80541;SDS011;69870;51.460;8.842;2023-08-17T11:45:51;16.63;;;12.38;;
80541;SDS011;69870;51.460;8.842;2023-08-17T11:48:18;18.77;;;12.85;;
80541;SDS011;69870;51.460;8.842;2023-08-17T11:50:45;16.00;;;11.65;;
80541;SDS011;69870;51.460;8.842;2023-08-17T11:53:13;15.88;;;12.32;;
80541;SDS011;69870;51.460;8.842;2023-08-17T11:55:39;18.90;;;11.38;;
80541;SDS011;69870;51.460;8.842;2023-08-17T11:58:06;19.92;;;11.85;;
80541;SDS011;69870;51.460;8.842;2023-08-17T12:00:34;17.20;;;10.60;;
80541;SDS011;69870;51.460;8.842;2023-08-17T12:03:02;14.73;;;11.18;;
80541;SDS011;69870;51.460;8.842;2023-08-17T12:05:30;11.70;;;9.27;;
80541;SDS011;69870;51.460;8.842;2023-08-17T12:07:58;12.80;;;10.25;;
80541;SDS011;69870;51.460;8.842;2023-08-17T12:10:28;10.23;;;8.75;;
80541;SDS011;69870;51.460;8.842;2023-08-17T12:12:57;9.98;;;8.35;;
80541;SDS011;69870;51.460;8.842;2023-08-17T12:15:29;13.35;;;9.90;;
80541;SDS011;69870;51.460;8.842;2023-08-17T12:17:58;11.70;;;8.90;;
80541;SDS011;69870;51.460;8.842;2023-08-17T12:20:25;16.48;;;9.48;;
80541;SDS011;69870;51.460;8.842;2023-08-17T12:22:51;11.57;;;8.90;;
80541;SDS011;69870;51.460;8.842;2023-08-17T12:25:20;19.30;;;10.18;;
80541;SDS011;69870;51.460;8.842;2023-08-17T12:27:48;13.02;;;8.07;;
80541;SDS011;69870;51.460;8.842;2023-08-17T12:30:23;9.98;;;8.30;;
80541;SDS011;69870;51.460;8.842;2023-08-17T12:32:52;10.73;;;8.80;;
80541;SDS011;69870;51.460;8.842;2023-08-17T12:35:18;11.05;;;7.85;;
80541;SDS011;69870;51.460;8.842;2023-08-17T12:37:46;12.95;;;8.30;;
80541;SDS011;69870;51.460;8.842;2023-08-17T12:40:13;11.40;;;8.25;;
80541;SDS011;69870;51.460;8.842;2023-08-17T12:42:40;9.10;;;8.15;;
80541;SDS011;69870;51.460;8.842;2023-08-17T12:45:08;12.07;;;7.47;;
80541;SDS011;69870;51.460;8.842;2023-08-17T12:47:35;12.63;;;7.65;;
80541;SDS011;69870;51.460;8.842;2023-08-17T12:50:02;10.32;;;7.70;;
80541;SDS011;69870;51.460;8.842;2023-08-17T12:52:29;8.20;;;7.30;;
80541;SDS011;69870;51.460;8.842;2023-08-17T12:54:56;10.98;;;6.72;;
80541;SDS011;69870;51.460;8.842;2023-08-17T12:57:22;13.57;;;7.88;;
80541;SDS011;69870;51.460;8.842;2023-08-17T12:59:49;12.75;;;9.27;;
80541;SDS011;69870;51.460;8.842;2023-08-17T13:02:17;11.50;;;8.52;;
80541;SDS011;69870;51.460;8.842;2023-08-17T13:04:43;11.73;;;8.70;;
80541;SDS011;69870;51.460;8.842;2023-08-17T13:07:10;17.98;;;10.50;;
80541;SDS011;69870;51.460;8.842;2023-08-17T13:09:37;17.38;;;9.68;;
80541;SDS011;69870;51.460;8.842;2023-08-17T13:12:03;12.13;;;10.32;;
80541;SDS011;69870;51.460;8.842;2023-08-17T13:14:30;15.15;;;10.27;;
80541;SDS011;69870;51.460;8.842;2023-08-17T13:16:57;17.20;;;10.18;;
80541;SDS011;69870;51.460;8.842;2023-08-17T13:19:25;13.88;;;11.05;;
80541;SDS011;69870;51.460;8.842;2023-08-17T13:21:51;14.93;;;10.75;;
80541;SDS011;69870;51.460;8.842;2023-08-17T13:24:18;16.50;;;11.05;;
80541;SDS011;69870;51.460;8.842;2023-08-17T13:26:45;18.83;;;12.18;;
80541;SDS011;69870;51.460;8.842;2023-08-17T13:29:11;16.17;;;12.23;;
80541;SDS011;69870;51.460;8.842;2023-08-17T13:31:38;16.85;;;12.07;;
80541;SDS011;69870;51.460;8.842;2023-08-17T13:34:05;21.42;;;14.73;;
80541;SDS011;69870;51.460;8.842;2023-08-17T13:36:33;19.52;;;14.07;;
80541;SDS011;69870;51.460;8.842;2023-08-17T13:38:59;18.42;;;14.43;;
80541;SDS011;69870;51.460;8.842;2023-08-17T13:41:26;17.33;;;12.52;;
80541;SDS011;69870;51.460;8.842;2023-08-17T13:43:52;14.75;;;10.90;;
80541;SDS011;69870;51.460;8.842;2023-08-17T13:46:20;19.25;;;12.30;;
80541;SDS011;69870;51.460;8.842;2023-08-17T13:48:47;16.33;;;13.40;;
80541;SDS011;69870;51.460;8.842;2023-08-17T13:51:13;20.52;;;13.73;;
80541;SDS011;69870;51.460;8.842;2023-08-17T13:56:39;20.63;;;14.93;;
80541;SDS011;69870;51.460;8.842;2023-08-17T13:59:06;16.52;;;12.93;;
80541;SDS011;69870;51.460;8.842;2023-08-17T14:01:32;19.50;;;13.23;;
80541;SDS011;69870;51.460;8.842;2023-08-17T14:03:59;19.23;;;13.05;;
80541;SDS011;69870;51.460;8.842;2023-08-17T14:06:28;20.58;;;12.90;;
80541;SDS011;69870;51.460;8.842;2023-08-17T14:08:55;17.90;;;13.20;;
80541;SDS011;69870;51.460;8.842;2023-08-17T14:11:23;17.85;;;12.90;;
80541;SDS011;69870;51.460;8.842;2023-08-17T14:13:49;15.55;;;12.68;;
80541;SDS011;69870;51.460;8.842;2023-08-17T14:16:16;16.30;;;11.52;;
80541;SDS011;69870;51.460;8.842;2023-08-17T14:18:42;18.23;;;11.32;;
80541;SDS011;69870;51.460;8.842;2023-08-17T14:21:09;17.92;;;11.55;;
80541;SDS011;69870;51.460;8.842;2023-08-17T14:23:35;17.40;;;11.95;;
80541;SDS011;69870;51.460;8.842;2023-08-17T14:26:02;17.83;;;11.77;;
80541;SDS011;69870;51.460;8.842;2023-08-17T14:28:30;15.35;;;10.32;;
80541;SDS011;69870;51.460;8.842;2023-08-17T14:30:56;15.75;;;11.02;;